sensor_id;sensor_type;location;lat;lon;timestamp;P1;durP1;ratioP1;P2;durP2;ratioP2
10450;SDS011;5273;51.290;6.918;2024-01-15T00:01:31;48.13;;;19.33;;
10450;SDS011;5273;51.290;6.918;2024-01-15T00:03:58;44.17;;;18.27;;
10450;SDS011;5273;51.290;6.918;2024-01-15T00:06:25;42.63;;;18.63;;
10450;SDS011;5273;51.290;6.918;2024-01-15T00:08:53;43.47;;;19.63;;
10450;SDS011;5273;51.290;6.918;2024-01-15T00:11:20;43.07;;;19.07;;
10450;SDS011;5273;51.290;6.918;2024-01-15T00:13:47;41.33;;;17.87;;
10450;SDS011;5273;51.290;6.918;2024-01-15T00:16:14;42.00;;;19.30;;
10450;SDS011;5273;51.290;6.918;2024-01-15T00:18:43;48.20;;;20.07;;
10450;SDS011;5273;51.290;6.918;2024-01-15T00:21:09;40.60;;;19.03;;
10450;SDS011;5273;51.290;6.918;2024-01-15T00:23:39;36.87;;;18.20;;
10450;SDS011;5273;51.290;6.918;2024-01-15T00:26:08;41.87;;;18.10;;
10450;SDS011;5273;51.290;6.918;2024-01-15T00:28:35;44.47;;;18.97;;
10450;SDS011;5273;51.290;6.918;2024-01-15T00:31:02;41.50;;;19.80;;
10450;SDS011;5273;51.290;6.918;2024-01-15T00:33:30;47.73;;;19.30;;
10450;SDS011;5273;51.290;6.918;2024-01-15T00:35:58;39.10;;;18.30;;
10450;SDS011;5273;51.290;6.918;2024-01-15T00:38:25;39.97;;;18.73;;
10450;SDS011;5273;51.290;6.918;2024-01-15T00:40:52;39.80;;;18.33;;
10450;SDS011;5273;51.290;6.918;2024-01-15T00:43:19;39.53;;;18.43;;
10450;SDS011;5273;51.290;6.918;2024-01-15T00:45:46;43.17;;;19.10;;
10450;SDS011;5273;51.290;6.918;2024-01-15T00:48:13;44.37;;;18.77;;
10450;SDS011;5273;51.290;6.918;2024-01-15T00:50:40;45.70;;;18.97;;
10450;SDS011;5273;51.290;6.918;2024-01-15T00:53:09;42.53;;;20.07;;
10450;SDS011;5273;51.290;6.918;2024-01-15T00:55:36;37.60;;;17.07;;
10450;SDS011;5273;51.290;6.918;2024-01-15T00:58:03;40.73;;;18.60;;
10450;SDS011;5273;51.290;6.918;2024-01-15T01:00:30;41.60;;;19.10;;
10450;SDS011;5273;51.290;6.918;2024-01-15T01:02:57;43.03;;;19.50;;
10450;SDS011;5273;51.290;6.918;2024-01-15T01:05:24;37.83;;;17.83;;
10450;SDS011;5273;51.290;6.918;2024-01-15T01:07:51;45.63;;;19.93;;
10450;SDS011;5273;51.290;6.918;2024-01-15T01:10:19;40.17;;;19.70;;
10450;SDS011;5273;51.290;6.918;2024-01-15T01:12:46;46.00;;;19.90;;
10450;SDS011;5273;51.290;6.918;2024-01-15T01:15:13;35.60;;;18.17;;
10450;SDS011;5273;51.290;6.918;2024-01-15T01:17:40;40.07;;;18.47;;
10450;SDS011;5273;51.290;6.918;2024-01-15T01:20:07;41.03;;;19.70;;
10450;SDS011;5273;51.290;6.918;2024-01-15T01:22:35;42.83;;;19.07;;
10450;SDS011;5273;51.290;6.918;2024-01-15T01:25:02;43.60;;;19.20;;
10450;SDS011;5273;51.290;6.918;2024-01-15T01:27:31;40.03;;;19.03;;
10450;SDS011;5273;51.290;6.918;2024-01-15T01:29:58;36.07;;;18.50;;
10450;SDS011;5273;51.290;6.918;2024-01-15T01:32:25;48.20;;;19.13;;
10450;SDS011;5273;51.290;6.918;2024-01-15T01:34:52;40.47;;;18.70;;
10450;SDS011;5273;51.290;6.918;2024-01-15T01:37:19;36.37;;;17.87;;
10450;SDS011;5273;51.290;6.918;2024-01-15T01:39:46;40.07;;;19.07;;
10450;SDS011;5273;51.290;6.918;2024-01-15T01:42:13;38.33;;;19.47;;
10450;SDS011;5273;51.290;6.918;2024-01-15T01:44:41;37.33;;;17.53;;
10450;SDS011;5273;51.290;6.918;2024-01-15T01:47:08;42.67;;;19.67;;
10450;SDS011;5273;51.290;6.918;2024-01-15T01:49:35;40.33;;;17.83;;
10450;SDS011;5273;51.290;6.918;2024-01-15T01:52:04;39.83;;;19.53;;
10450;SDS011;5273;51.290;6.918;2024-01-15T01:54:32;32.87;;;17.83;;
10450;SDS011;5273;51.290;6.918;2024-01-15T01:57:00;34.27;;;18.33;;
10450;SDS011;5273;51.290;6.918;2024-01-15T01:59:29;35.80;;;19.00;;
10450;SDS011;5273;51.290;6.918;2024-01-15T02:01:58;37.97;;;18.17;;
10450;SDS011;5273;51.290;6.918;2024-01-15T02:04:28;35.73;;;17.97;;
10450;SDS011;5273;51.290;6.918;2024-01-15T02:06:57;36.60;;;17.73;;
10450;SDS011;5273;51.290;6.918;2024-01-15T02:09:25;39.63;;;17.30;;
10450;SDS011;5273;51.290;6.918;2024-01-15T02:11:52;39.37;;;17.63;;
10450;SDS011;5273;51.290;6.918;2024-01-15T02:14:19;38.00;;;17.30;;
10450;SDS011;5273;51.290;6.918;2024-01-15T02:16:46;34.67;;;16.87;;
10450;SDS011;5273;51.290;6.918;2024-01-15T02:19:18;31.50;;;16.33;;
10450;SDS011;5273;51.290;6.918;2024-01-15T02:21:45;33.50;;;16.97;;
10450;SDS011;5273;51.290;6.918;2024-01-15T02:24:13;30.47;;;15.17;;
10450;SDS011;5273;51.290;6.918;2024-01-15T02:26:40;33.10;;;16.33;;
10450;SDS011;5273;51.290;6.918;2024-01-15T02:29:07;28.60;;;16.07;;
10450;SDS011;5273;51.290;6.918;2024-01-15T02:31:35;33.20;;;16.50;;
10450;SDS011;5273;51.290;6.918;2024-01-15T02:34:02;39.77;;;16.70;;
10450;SDS011;5273;51.290;6.918;2024-01-15T02:36:29;32.63;;;16.77;;
10450;SDS011;5273;51.290;6.918;2024-01-15T02:38:56;32.57;;;15.73;;
10450;SDS011;5273;51.290;6.918;2024-01-15T02:41:24;30.90;;;15.03;;
10450;SDS011;5273;51.290;6.918;2024-01-15T02:43:51;31.73;;;15.10;;
10450;SDS011;5273;51.290;6.918;2024-01-15T02:46:18;31.13;;;15.70;;
10450;SDS011;5273;51.290;6.918;2024-01-15T02:48:45;35.67;;;15.23;;
10450;SDS011;5273;51.290;6.918;2024-01-15T02:51:12;29.17;;;14.60;;
10450;SDS011;5273;51.290;6.918;2024-01-15T02:53:39;26.93;;;11.83;;
10450;SDS011;5273;51.290;6.918;2024-01-15T02:56:06;24.87;;;12.10;;
10450;SDS011;5273;51.290;6.918;2024-01-15T02:58:34;26.67;;;13.70;;
10450;SDS011;5273;51.290;6.918;2024-01-15T03:01:01;29.00;;;12.60;;
10450;SDS011;5273;51.290;6.918;2024-01-15T03:03:28;27.90;;;12.90;;
10450;SDS011;5273;51.290;6.918;2024-01-15T03:05:56;25.97;;;12.23;;
10450;SDS011;5273;51.290;6.918;2024-01-15T03:08:23;27.37;;;12.83;;
10450;SDS011;5273;51.290;6.918;2024-01-15T03:10:50;25.80;;;12.77;;
10450;SDS011;5273;51.290;6.918;2024-01-15T03:13:17;24.70;;;12.13;;
10450;SDS011;5273;51.290;6.918;2024-01-15T03:15:46;30.23;;;12.73;;
10450;SDS011;5273;51.290;6.918;2024-01-15T03:18:13;24.93;;;12.00;;
10450;SDS011;5273;51.290;6.918;2024-01-15T03:20:40;24.47;;;12.90;;
10450;SDS011;5273;51.290;6.918;2024-01-15T03:23:07;27.80;;;13.07;;
10450;SDS011;5273;51.290;6.918;2024-01-15T03:25:34;27.40;;;13.33;;
10450;SDS011;5273;51.290;6.918;2024-01-15T03:28:01;23.93;;;13.50;;
10450;SDS011;5273;51.290;6.918;2024-01-15T03:30:29;30.00;;;13.03;;
10450;SDS011;5273;51.290;6.918;2024-01-15T03:32:57;32.80;;;14.30;;
10450;SDS011;5273;51.290;6.918;2024-01-15T03:35:24;28.33;;;12.97;;
10450;SDS011;5273;51.290;6.918;2024-01-15T03:37:54;29.67;;;13.90;;
10450;SDS011;5273;51.290;6.918;2024-01-15T03:40:21;26.53;;;13.40;;
10450;SDS011;5273;51.290;6.918;2024-01-15T03:42:48;27.13;;;13.03;;
10450;SDS011;5273;51.290;6.918;2024-01-15T03:45:15;29.00;;;13.30;;
10450;SDS011;5273;51.290;6.918;2024-01-15T03:47:43;26.37;;;12.73;;
10450;SDS011;5273;51.290;6.918;2024-01-15T03:50:11;22.73;;;12.27;;
10450;SDS011;5273;51.290;6.918;2024-01-15T03:52:38;32.10;;;13.63;;
10450;SDS011;5273;51.290;6.918;2024-01-15T03:55:05;25.13;;;14.00;;
10450;SDS011;5273;51.290;6.918;2024-01-15T03:57:32;22.70;;;12.47;;
10450;SDS011;5273;51.290;6.918;2024-01-15T04:00:00;20.57;;;12.00;;
10450;SDS011;5273;51.290;6.918;2024-01-15T04:02:26;27.70;;;12.80;;
10450;SDS011;5273;51.290;6.918;2024-01-15T04:04:53;22.93;;;12.67;;
10450;SDS011;5273;51.290;6.918;2024-01-15T04:07:22;24.40;;;11.83;;
10450;SDS011;5273;51.290;6.918;2024-01-15T04:09:49;24.03;;;13.00;;
10450;SDS011;5273;51.290;6.918;2024-01-15T04:12:16;32.33;;;13.67;;
10450;SDS011;5273;51.290;6.918;2024-01-15T04:14:43;27.00;;;11.93;;
10450;SDS011;5273;51.290;6.918;2024-01-15T04:17:10;21.10;;;12.43;;
10450;SDS011;5273;51.290;6.918;2024-01-15T04:19:37;21.43;;;12.70;;
10450;SDS011;5273;51.290;6.918;2024-01-15T04:22:04;29.53;;;13.53;;
10450;SDS011;5273;51.290;6.918;2024-01-15T04:24:33;28.63;;;12.23;;
10450;SDS011;5273;51.290;6.918;2024-01-15T04:26:59;26.83;;;13.23;;
10450;SDS011;5273;51.290;6.918;2024-01-15T04:29:27;25.17;;;12.13;;
10450;SDS011;5273;51.290;6.918;2024-01-15T04:31:54;21.87;;;11.67;;
10450;SDS011;5273;51.290;6.918;2024-01-15T04:34:21;25.53;;;13.53;;
10450;SDS011;5273;51.290;6.918;2024-01-15T04:36:48;31.13;;;12.63;;
10450;SDS011;5273;51.290;6.918;2024-01-15T04:39:15;25.23;;;12.53;;
10450;SDS011;5273;51.290;6.918;2024-01-15T04:41:44;26.00;;;12.90;;
10450;SDS011;5273;51.290;6.918;2024-01-15T04:44:11;24.37;;;12.90;;
10450;SDS011;5273;51.290;6.918;2024-01-15T04:46:38;23.23;;;12.07;;
10450;SDS011;5273;51.290;6.918;2024-01-15T04:49:05;23.77;;;12.40;;
10450;SDS011;5273;51.290;6.918;2024-01-15T04:51:32;25.60;;;12.30;;
10450;SDS011;5273;51.290;6.918;2024-01-15T04:54:00;20.70;;;10.93;;
10450;SDS011;5273;51.290;6.918;2024-01-15T04:56:27;21.73;;;11.27;;
10450;SDS011;5273;51.290;6.918;2024-01-15T04:58:56;24.17;;;11.10;;
10450;SDS011;5273;51.290;6.918;2024-01-15T05:01:23;20.87;;;10.10;;
10450;SDS011;5273;51.290;6.918;2024-01-15T05:03:50;23.47;;;11.03;;
10450;SDS011;5273;51.290;6.918;2024-01-15T05:06:17;21.63;;;11.17;;
10450;SDS011;5273;51.290;6.918;2024-01-15T05:08:44;21.77;;;11.97;;
10450;SDS011;5273;51.290;6.918;2024-01-15T05:11:11;20.57;;;11.17;;
10450;SDS011;5273;51.290;6.918;2024-01-15T05:13:38;20.63;;;11.00;;
10450;SDS011;5273;51.290;6.918;2024-01-15T05:16:07;23.20;;;10.53;;
10450;SDS011;5273;51.290;6.918;2024-01-15T05:18:34;22.17;;;11.07;;
10450;SDS011;5273;51.290;6.918;2024-01-15T05:21:02;16.97;;;10.07;;
10450;SDS011;5273;51.290;6.918;2024-01-15T05:23:30;17.50;;;10.80;;
10450;SDS011;5273;51.290;6.918;2024-01-15T05:25:57;18.30;;;10.77;;
10450;SDS011;5273;51.290;6.918;2024-01-15T05:28:24;20.57;;;9.87;;
10450;SDS011;5273;51.290;6.918;2024-01-15T05:30:51;18.23;;;11.23;;
10450;SDS011;5273;51.290;6.918;2024-01-15T05:33:21;22.03;;;10.50;;
10450;SDS011;5273;51.290;6.918;2024-01-15T05:35:48;22.17;;;10.17;;
10450;SDS011;5273;51.290;6.918;2024-01-15T05:38:16;18.77;;;10.73;;
10450;SDS011;5273;51.290;6.918;2024-01-15T05:40:43;19.63;;;9.60;;
10450;SDS011;5273;51.290;6.918;2024-01-15T05:43:10;20.40;;;10.87;;
10450;SDS011;5273;51.290;6.918;2024-01-15T05:45:38;20.90;;;10.63;;
10450;SDS011;5273;51.290;6.918;2024-01-15T05:48:05;18.10;;;10.43;;
10450;SDS011;5273;51.290;6.918;2024-01-15T05:50:33;21.60;;;10.67;;
10450;SDS011;5273;51.290;6.918;2024-01-15T05:53:00;17.03;;;9.27;;
10450;SDS011;5273;51.290;6.918;2024-01-15T05:55:27;17.93;;;9.50;;
10450;SDS011;5273;51.290;6.918;2024-01-15T05:57:54;19.33;;;9.73;;
10450;SDS011;5273;51.290;6.918;2024-01-15T06:00:21;16.37;;;9.70;;
10450;SDS011;5273;51.290;6.918;2024-01-15T06:02:49;16.83;;;9.40;;
10450;SDS011;5273;51.290;6.918;2024-01-15T06:05:16;20.03;;;9.63;;
10450;SDS011;5273;51.290;6.918;2024-01-15T06:07:44;16.37;;;9.17;;
10450;SDS011;5273;51.290;6.918;2024-01-15T06:10:11;19.97;;;9.73;;
10450;SDS011;5273;51.290;6.918;2024-01-15T06:12:38;14.47;;;9.00;;
10450;SDS011;5273;51.290;6.918;2024-01-15T06:15:05;15.53;;;8.67;;
10450;SDS011;5273;51.290;6.918;2024-01-15T06:17:32;16.03;;;8.73;;
10450;SDS011;5273;51.290;6.918;2024-01-15T06:19:59;16.27;;;8.27;;
10450;SDS011;5273;51.290;6.918;2024-01-15T06:22:27;14.23;;;7.77;;
10450;SDS011;5273;51.290;6.918;2024-01-15T06:24:55;12.50;;;8.83;;
10450;SDS011;5273;51.290;6.918;2024-01-15T06:27:22;21.43;;;8.67;;
10450;SDS011;5273;51.290;6.918;2024-01-15T06:29:49;16.67;;;7.93;;
10450;SDS011;5273;51.290;6.918;2024-01-15T06:32:16;10.43;;;7.33;;
10450;SDS011;5273;51.290;6.918;2024-01-15T06:34:44;12.83;;;7.07;;
10450;SDS011;5273;51.290;6.918;2024-01-15T06:37:11;14.97;;;8.23;;
10450;SDS011;5273;51.290;6.918;2024-01-15T06:39:38;13.57;;;7.80;;
10450;SDS011;5273;51.290;6.918;2024-01-15T06:42:06;16.03;;;8.67;;
10450;SDS011;5273;51.290;6.918;2024-01-15T06:44:33;13.07;;;7.13;;
10450;SDS011;5273;51.290;6.918;2024-01-15T06:47:00;10.37;;;6.80;;
10450;SDS011;5273;51.290;6.918;2024-01-15T06:49:28;12.20;;;7.23;;
10450;SDS011;5273;51.290;6.918;2024-01-15T06:51:55;11.80;;;7.10;;
10450;SDS011;5273;51.290;6.918;2024-01-15T06:54:22;14.43;;;6.60;;
10450;SDS011;5273;51.290;6.918;2024-01-15T06:56:51;10.00;;;5.80;;
10450;SDS011;5273;51.290;6.918;2024-01-15T06:59:19;9.07;;;5.03;;
10450;SDS011;5273;51.290;6.918;2024-01-15T07:01:46;8.53;;;5.57;;
10450;SDS011;5273;51.290;6.918;2024-01-15T07:04:13;10.87;;;5.87;;
10450;SDS011;5273;51.290;6.918;2024-01-15T07:06:40;9.20;;;5.47;;
10450;SDS011;5273;51.290;6.918;2024-01-15T07:09:08;8.03;;;5.53;;
10450;SDS011;5273;51.290;6.918;2024-01-15T07:11:36;8.40;;;5.80;;
10450;SDS011;5273;51.290;6.918;2024-01-15T07:14:03;9.03;;;5.00;;
10450;SDS011;5273;51.290;6.918;2024-01-15T07:16:31;7.07;;;5.13;;
10450;SDS011;5273;51.290;6.918;2024-01-15T07:18:58;9.93;;;5.37;;
10450;SDS011;5273;51.290;6.918;2024-01-15T07:21:25;9.80;;;5.77;;
10450;SDS011;5273;51.290;6.918;2024-01-15T07:23:52;11.50;;;6.10;;
10450;SDS011;5273;51.290;6.918;2024-01-15T07:26:20;14.53;;;7.00;;
10450;SDS011;5273;51.290;6.918;2024-01-15T07:28:47;15.27;;;7.43;;
10450;SDS011;5273;51.290;6.918;2024-01-15T07:31:15;11.03;;;7.30;;
10450;SDS011;5273;51.290;6.918;2024-01-15T07:33:43;10.63;;;7.77;;
10450;SDS011;5273;51.290;6.918;2024-01-15T07:36:09;20.77;;;8.90;;
10450;SDS011;5273;51.290;6.918;2024-01-15T07:38:37;12.73;;;8.53;;
10450;SDS011;5273;51.290;6.918;2024-01-15T07:41:04;16.57;;;9.43;;
10450;SDS011;5273;51.290;6.918;2024-01-15T07:43:31;18.47;;;10.03;;
10450;SDS011;5273;51.290;6.918;2024-01-15T07:45:58;20.23;;;10.43;;
10450;SDS011;5273;51.290;6.918;2024-01-15T07:48:26;18.10;;;10.57;;
10450;SDS011;5273;51.290;6.918;2024-01-15T07:50:55;15.63;;;9.70;;
10450;SDS011;5273;51.290;6.918;2024-01-15T07:53:21;18.27;;;9.93;;
10450;SDS011;5273;51.290;6.918;2024-01-15T07:55:48;18.77;;;10.20;;
10450;SDS011;5273;51.290;6.918;2024-01-15T07:58:16;19.93;;;11.10;;
10450;SDS011;5273;51.290;6.918;2024-01-15T08:00:43;18.13;;;11.43;;
10450;SDS011;5273;51.290;6.918;2024-01-15T08:03:10;16.63;;;9.50;;
10450;SDS011;5273;51.290;6.918;2024-01-15T08:05:38;21.67;;;10.87;;
10450;SDS011;5273;51.290;6.918;2024-01-15T08:08:06;19.47;;;9.97;;
10450;SDS011;5273;51.290;6.918;2024-01-15T08:10:33;16.67;;;9.80;;
10450;SDS011;5273;51.290;6.918;2024-01-15T08:13:00;20.27;;;11.07;;
10450;SDS011;5273;51.290;6.918;2024-01-15T08:15:27;17.97;;;9.90;;
10450;SDS011;5273;51.290;6.918;2024-01-15T08:17:54;19.80;;;9.93;;
10450;SDS011;5273;51.290;6.918;2024-01-15T08:20:21;23.13;;;10.77;;
10450;SDS011;5273;51.290;6.918;2024-01-15T08:22:48;21.03;;;10.03;;
10450;SDS011;5273;51.290;6.918;2024-01-15T08:25:17;15.47;;;9.73;;
10450;SDS011;5273;51.290;6.918;2024-01-15T08:27:44;24.13;;;9.80;;
10450;SDS011;5273;51.290;6.918;2024-01-15T08:30:11;15.20;;;9.67;;
10450;SDS011;5273;51.290;6.918;2024-01-15T08:32:38;14.37;;;9.20;;
10450;SDS011;5273;51.290;6.918;2024-01-15T08:35:07;18.67;;;10.03;;
10450;SDS011;5273;51.290;6.918;2024-01-15T08:37:34;19.33;;;9.50;;
10450;SDS011;5273;51.290;6.918;2024-01-15T08:40:01;19.27;;;9.97;;
10450;SDS011;5273;51.290;6.918;2024-01-15T08:42:30;15.13;;;9.13;;
10450;SDS011;5273;51.290;6.918;2024-01-15T08:44:57;12.37;;;8.90;;
10450;SDS011;5273;51.290;6.918;2024-01-15T08:47:24;14.43;;;8.87;;
10450;SDS011;5273;51.290;6.918;2024-01-15T08:49:52;16.57;;;9.53;;
10450;SDS011;5273;51.290;6.918;2024-01-15T08:52:19;13.33;;;8.73;;
10450;SDS011;5273;51.290;6.918;2024-01-15T08:54:46;11.60;;;8.27;;
10450;SDS011;5273;51.290;6.918;2024-01-15T08:57:13;12.80;;;8.53;;
10450;SDS011;5273;51.290;6.918;2024-01-15T08:59:42;12.47;;;8.37;;
10450;SDS011;5273;51.290;6.918;2024-01-15T09:02:08;11.87;;;7.43;;
10450;SDS011;5273;51.290;6.918;2024-01-15T09:04:36;12.93;;;8.20;;
10450;SDS011;5273;51.290;6.918;2024-01-15T09:07:03;11.30;;;8.37;;
10450;SDS011;5273;51.290;6.918;2024-01-15T09:09:30;11.10;;;8.00;;
10450;SDS011;5273;51.290;6.918;2024-01-15T09:11:57;12.73;;;8.13;;
10450;SDS011;5273;51.290;6.918;2024-01-15T09:14:24;11.80;;;8.70;;
10450;SDS011;5273;51.290;6.918;2024-01-15T09:16:53;12.90;;;7.73;;
10450;SDS011;5273;51.290;6.918;2024-01-15T09:19:21;13.03;;;8.60;;
10450;SDS011;5273;51.290;6.918;2024-01-15T09:21:48;10.03;;;7.87;;
10450;SDS011;5273;51.290;6.918;2024-01-15T09:24:15;10.93;;;7.77;;
10450;SDS011;5273;51.290;6.918;2024-01-15T09:26:42;12.13;;;7.97;;
10450;SDS011;5273;51.290;6.918;2024-01-15T09:29:10;11.90;;;8.17;;
10450;SDS011;5273;51.290;6.918;2024-01-15T09:31:37;10.90;;;8.13;;
10450;SDS011;5273;51.290;6.918;2024-01-15T09:34:05;11.00;;;7.53;;
10450;SDS011;5273;51.290;6.918;2024-01-15T09:36:32;12.13;;;7.70;;
10450;SDS011;5273;51.290;6.918;2024-01-15T09:38:59;11.70;;;7.93;;
10450;SDS011;5273;51.290;6.918;2024-01-15T09:41:26;10.13;;;7.43;;
10450;SDS011;5273;51.290;6.918;2024-01-15T09:43:53;9.53;;;6.63;;
10450;SDS011;5273;51.290;6.918;2024-01-15T09:46:21;9.63;;;7.10;;
10450;SDS011;5273;51.290;6.918;2024-01-15T09:48:48;9.57;;;6.87;;
10450;SDS011;5273;51.290;6.918;2024-01-15T09:51:16;8.87;;;6.20;;
10450;SDS011;5273;51.290;6.918;2024-01-15T09:53:44;10.83;;;6.40;;
10450;SDS011;5273;51.290;6.918;2024-01-15T09:56:12;7.97;;;5.93;;
10450;SDS011;5273;51.290;6.918;2024-01-15T09:58:41;10.50;;;6.17;;
10450;SDS011;5273;51.290;6.918;2024-01-15T10:01:08;6.33;;;5.03;;
10450;SDS011;5273;51.290;6.918;2024-01-15T10:03:35;6.33;;;5.10;;
10450;SDS011;5273;51.290;6.918;2024-01-15T10:06:03;8.17;;;5.70;;
10450;SDS011;5273;51.290;6.918;2024-01-15T10:08:32;6.87;;;4.97;;
10450;SDS011;5273;51.290;6.918;2024-01-15T10:10:59;9.37;;;5.47;;
10450;SDS011;5273;51.290;6.918;2024-01-15T10:13:26;7.47;;;5.40;;
10450;SDS011;5273;51.290;6.918;2024-01-15T10:15:53;6.67;;;5.27;;
10450;SDS011;5273;51.290;6.918;2024-01-15T10:18:20;6.93;;;5.10;;
10450;SDS011;5273;51.290;6.918;2024-01-15T10:20:47;6.00;;;5.23;;
10450;SDS011;5273;51.290;6.918;2024-01-15T10:23:15;7.57;;;5.60;;
10450;SDS011;5273;51.290;6.918;2024-01-15T10:25:43;8.50;;;5.43;;
10450;SDS011;5273;51.290;6.918;2024-01-15T10:28:10;9.03;;;5.20;;
10450;SDS011;5273;51.290;6.918;2024-01-15T10:30:37;7.30;;;4.70;;
10450;SDS011;5273;51.290;6.918;2024-01-15T10:33:04;5.17;;;4.43;;
10450;SDS011;5273;51.290;6.918;2024-01-15T10:35:32;9.30;;;4.70;;
10450;SDS011;5273;51.290;6.918;2024-01-15T10:37:59;7.17;;;4.60;;
10450;SDS011;5273;51.290;6.918;2024-01-15T10:40:27;5.53;;;4.50;;
10450;SDS011;5273;51.290;6.918;2024-01-15T10:42:55;5.67;;;4.70;;
10450;SDS011;5273;51.290;6.918;2024-01-15T10:45:22;6.70;;;4.47;;
10450;SDS011;5273;51.290;6.918;2024-01-15T10:47:49;7.87;;;5.10;;
10450;SDS011;5273;51.290;6.918;2024-01-15T10:50:16;5.40;;;4.43;;
10450;SDS011;5273;51.290;6.918;2024-01-15T10:52:43;5.93;;;4.20;;
10450;SDS011;5273;51.290;6.918;2024-01-15T10:55:10;4.67;;;3.87;;
10450;SDS011;5273;51.290;6.918;2024-01-15T10:57:38;4.83;;;4.30;;
10450;SDS011;5273;51.290;6.918;2024-01-15T11:00:07;8.07;;;4.83;;
10450;SDS011;5273;51.290;6.918;2024-01-15T11:02:39;4.93;;;4.00;;
10450;SDS011;5273;51.290;6.918;2024-01-15T11:05:08;5.40;;;4.80;;
10450;SDS011;5273;51.290;6.918;2024-01-15T11:07:34;8.43;;;4.73;;
10450;SDS011;5273;51.290;6.918;2024-01-15T11:10:03;4.87;;;4.37;;
10450;SDS011;5273;51.290;6.918;2024-01-15T11:12:30;6.27;;;4.33;;
10450;SDS011;5273;51.290;6.918;2024-01-15T11:15:01;6.13;;;3.53;;
10450;SDS011;5273;51.290;6.918;2024-01-15T11:17:57;7.30;;;3.80;;
10450;SDS011;5273;51.290;6.918;2024-01-15T11:20:25;5.43;;;3.90;;
10450;SDS011;5273;51.290;6.918;2024-01-15T11:22:52;5.13;;;4.00;;
10450;SDS011;5273;51.290;6.918;2024-01-15T11:25:18;5.67;;;3.90;;
10450;SDS011;5273;51.290;6.918;2024-01-15T11:27:46;7.43;;;3.53;;
10450;SDS011;5273;51.290;6.918;2024-01-15T11:30:16;5.57;;;3.77;;
10450;SDS011;5273;51.290;6.918;2024-01-15T11:32:44;4.20;;;2.87;;
10450;SDS011;5273;51.290;6.918;2024-01-15T11:35:11;7.37;;;3.17;;
10450;SDS011;5273;51.290;6.918;2024-01-15T11:37:58;4.93;;;2.90;;
10450;SDS011;5273;51.290;6.918;2024-01-15T11:40:39;7.67;;;2.90;;
10450;SDS011;5273;51.290;6.918;2024-01-15T11:43:07;5.73;;;2.83;;
10450;SDS011;5273;51.290;6.918;2024-01-15T11:45:35;8.53;;;2.80;;
10450;SDS011;5273;51.290;6.918;2024-01-15T11:48:10;3.47;;;2.20;;
10450;SDS011;5273;51.290;6.918;2024-01-15T11:50:41;8.33;;;2.77;;
10450;SDS011;5273;51.290;6.918;2024-01-15T11:53:21;3.80;;;2.50;;
10450;SDS011;5273;51.290;6.918;2024-01-15T11:55:59;3.73;;;2.17;;
10450;SDS011;5273;51.290;6.918;2024-01-15T11:58:29;4.50;;;2.50;;
10450;SDS011;5273;51.290;6.918;2024-01-15T12:00:56;6.37;;;2.50;;
10450;SDS011;5273;51.290;6.918;2024-01-15T12:03:24;6.27;;;2.33;;
10450;SDS011;5273;51.290;6.918;2024-01-15T12:05:51;3.87;;;2.00;;
10450;SDS011;5273;51.290;6.918;2024-01-15T12:08:20;5.40;;;2.10;;
10450;SDS011;5273;51.290;6.918;2024-01-15T12:10:47;3.17;;;1.97;;
10450;SDS011;5273;51.290;6.918;2024-01-15T12:13:14;5.07;;;2.27;;
10450;SDS011;5273;51.290;6.918;2024-01-15T12:15:43;3.03;;;2.47;;
10450;SDS011;5273;51.290;6.918;2024-01-15T12:18:11;4.57;;;2.40;;
10450;SDS011;5273;51.290;6.918;2024-01-15T12:20:40;7.83;;;2.20;;
10450;SDS011;5273;51.290;6.918;2024-01-15T12:23:08;2.30;;;2.20;;
10450;SDS011;5273;51.290;6.918;2024-01-15T12:25:36;3.57;;;2.33;;
10450;SDS011;5273;51.290;6.918;2024-01-15T12:28:03;3.87;;;2.17;;
10450;SDS011;5273;51.290;6.918;2024-01-15T12:30:32;5.23;;;2.40;;
10450;SDS011;5273;51.290;6.918;2024-01-15T12:33:01;5.03;;;2.60;;
10450;SDS011;5273;51.290;6.918;2024-01-15T12:35:28;7.30;;;2.53;;
10450;SDS011;5273;51.290;6.918;2024-01-15T12:37:57;5.30;;;2.60;;
10450;SDS011;5273;51.290;6.918;2024-01-15T12:40:25;3.33;;;2.50;;
10450;SDS011;5273;51.290;6.918;2024-01-15T12:42:52;3.80;;;2.30;;
10450;SDS011;5273;51.290;6.918;2024-01-15T12:45:19;3.60;;;2.40;;
10450;SDS011;5273;51.290;6.918;2024-01-15T12:47:46;3.57;;;2.47;;
10450;SDS011;5273;51.290;6.918;2024-01-15T12:50:12;4.57;;;3.30;;
10450;SDS011;5273;51.290;6.918;2024-01-15T12:52:40;3.57;;;2.90;;
10450;SDS011;5273;51.290;6.918;2024-01-15T12:55:09;4.97;;;3.20;;
10450;SDS011;5273;51.290;6.918;2024-01-15T12:57:36;5.57;;;3.30;;
10450;SDS011;5273;51.290;6.918;2024-01-15T13:00:04;6.07;;;3.80;;
10450;SDS011;5273;51.290;6.918;2024-01-15T13:02:36;6.10;;;4.20;;
10450;SDS011;5273;51.290;6.918;2024-01-15T13:05:03;5.70;;;3.93;;
10450;SDS011;5273;51.290;6.918;2024-01-15T13:07:30;6.33;;;3.77;;
10450;SDS011;5273;51.290;6.918;2024-01-15T13:09:57;7.97;;;4.33;;
10450;SDS011;5273;51.290;6.918;2024-01-15T13:12:25;6.90;;;3.87;;
10450;SDS011;5273;51.290;6.918;2024-01-15T13:14:52;6.43;;;4.53;;
10450;SDS011;5273;51.290;6.918;2024-01-15T13:17:19;6.37;;;4.43;;
10450;SDS011;5273;51.290;6.918;2024-01-15T13:19:46;10.70;;;5.17;;
10450;SDS011;5273;51.290;6.918;2024-01-15T13:22:13;8.93;;;4.90;;
10450;SDS011;5273;51.290;6.918;2024-01-15T13:24:40;5.10;;;4.27;;
10450;SDS011;5273;51.290;6.918;2024-01-15T13:27:07;7.23;;;4.53;;
10450;SDS011;5273;51.290;6.918;2024-01-15T13:29:35;11.47;;;5.03;;
10450;SDS011;5273;51.290;6.918;2024-01-15T13:32:03;9.33;;;4.60;;
10450;SDS011;5273;51.290;6.918;2024-01-15T13:34:30;7.50;;;4.70;;
10450;SDS011;5273;51.290;6.918;2024-01-15T13:36:57;8.53;;;4.70;;
10450;SDS011;5273;51.290;6.918;2024-01-15T13:39:24;5.37;;;3.60;;
10450;SDS011;5273;51.290;6.918;2024-01-15T13:41:51;5.03;;;3.37;;
10450;SDS011;5273;51.290;6.918;2024-01-15T13:44:18;5.37;;;3.83;;
10450;SDS011;5273;51.290;6.918;2024-01-15T13:46:46;5.73;;;3.67;;
10450;SDS011;5273;51.290;6.918;2024-01-15T13:49:13;6.33;;;3.60;;
10450;SDS011;5273;51.290;6.918;2024-01-15T13:51:40;4.97;;;3.23;;
10450;SDS011;5273;51.290;6.918;2024-01-15T13:54:06;7.27;;;3.80;;
10450;SDS011;5273;51.290;6.918;2024-01-15T13:56:34;6.23;;;3.40;;
10450;SDS011;5273;51.290;6.918;2024-01-15T13:59:01;5.27;;;3.20;;
10450;SDS011;5273;51.290;6.918;2024-01-15T14:01:29;3.60;;;2.83;;
10450;SDS011;5273;51.290;6.918;2024-01-15T14:03:57;4.00;;;3.07;;
10450;SDS011;5273;51.290;6.918;2024-01-15T14:06:24;3.00;;;2.70;;
10450;SDS011;5273;51.290;6.918;2024-01-15T14:08:51;6.37;;;2.90;;
10450;SDS011;5273;51.290;6.918;2024-01-15T14:11:18;8.37;;;2.87;;
10450;SDS011;5273;51.290;6.918;2024-01-15T14:13:45;2.53;;;2.33;;
10450;SDS011;5273;51.290;6.918;2024-01-15T14:16:12;4.03;;;2.73;;
10450;SDS011;5273;51.290;6.918;2024-01-15T14:18:39;2.77;;;2.13;;
10450;SDS011;5273;51.290;6.918;2024-01-15T14:21:07;3.80;;;2.30;;
10450;SDS011;5273;51.290;6.918;2024-01-15T14:23:34;2.20;;;2.00;;
10450;SDS011;5273;51.290;6.918;2024-01-15T14:26:01;3.47;;;2.07;;
10450;SDS011;5273;51.290;6.918;2024-01-15T14:28:29;2.30;;;2.10;;
10450;SDS011;5273;51.290;6.918;2024-01-15T14:30:56;4.13;;;2.30;;
10450;SDS011;5273;51.290;6.918;2024-01-15T14:33:24;1.80;;;1.70;;
10450;SDS011;5273;51.290;6.918;2024-01-15T14:35:51;2.07;;;1.87;;
10450;SDS011;5273;51.290;6.918;2024-01-15T14:38:19;2.47;;;2.00;;
10450;SDS011;5273;51.290;6.918;2024-01-15T14:40:46;3.40;;;1.93;;
10450;SDS011;5273;51.290;6.918;2024-01-15T14:43:12;2.27;;;2.07;;
10450;SDS011;5273;51.290;6.918;2024-01-15T14:45:39;5.50;;;2.40;;
10450;SDS011;5273;51.290;6.918;2024-01-15T14:48:06;1.80;;;1.70;;
10450;SDS011;5273;51.290;6.918;2024-01-15T14:50:34;2.83;;;1.90;;